createdAt,value
2023-01-25T00:00:46.092Z,0.00
2023-01-25T00:01:45.094Z,0.00
2023-01-25T00:02:46.067Z,0.00
2023-01-25T00:03:45.037Z,0.00
2023-01-25T00:04:45.010Z,0.00
2023-01-25T00:05:45.041Z,0.00
2023-01-25T00:06:44.995Z,0.00
2023-01-25T00:07:45.970Z,0.00
2023-01-25T00:08:46.037Z,0.00
2023-01-25T00:09:44.952Z,0.00
2023-01-25T00:10:44.947Z,0.00
2023-01-25T00:11:44.940Z,0.00
2023-01-25T00:12:44.933Z,0.00
2023-01-25T00:13:44.895Z,0.00
2023-01-25T00:14:45.913Z,0.00
2023-01-25T00:15:44.902Z,0.00
2023-01-25T00:16:44.958Z,0.00
2023-01-25T00:17:44.876Z,0.00
2023-01-25T00:18:44.860Z,0.00
2023-01-25T00:19:44.891Z,0.00
2023-01-25T00:20:44.824Z,0.00
2023-01-25T00:21:44.837Z,0.00
2023-01-25T00:22:44.811Z,0.00
2023-01-25T00:23:44.893Z,0.00
2023-01-25T00:24:44.805Z,0.00
2023-01-25T00:25:44.774Z,0.00
2023-01-25T00:26:44.757Z,0.00
2023-01-25T00:27:45.788Z,0.00
2023-01-25T00:28:44.750Z,0.00
2023-01-25T00:29:44.746Z,0.00
2023-01-25T00:30:44.759Z,0.00
2023-01-25T00:31:45.810Z,0.00
2023-01-25T00:32:45.017Z,0.00
2023-01-25T00:33:45.693Z,0.00
2023-01-25T00:34:45.714Z,0.00
2023-01-25T00:35:44.679Z,0.00
2023-01-25T00:36:44.671Z,0.00
2023-01-25T00:37:44.640Z,0.00
2023-01-25T00:38:44.623Z,0.00
2023-01-25T00:39:44.657Z,0.00
2023-01-25T00:40:44.651Z,0.00
2023-01-25T00:41:44.619Z,0.00
2023-01-25T00:42:45.590Z,0.00
2023-01-25T00:43:45.598Z,0.00
2023-01-25T00:44:44.570Z,0.00
2023-01-25T00:45:45.608Z,0.00
2023-01-25T00:46:44.629Z,0.00
2023-01-25T00:47:44.551Z,0.00
2023-01-25T00:48:44.515Z,0.00
2023-01-25T00:49:44.545Z,0.00
2023-01-25T00:50:45.518Z,0.00
2023-01-25T00:51:44.519Z,0.00
2023-01-25T00:52:44.511Z,0.00
2023-01-25T00:53:44.473Z,0.00
2023-01-25T00:54:44.479Z,0.00
2023-01-25T00:55:44.488Z,0.00
2023-01-25T00:56:44.443Z,0.00
2023-01-25T00:57:45.436Z,0.00
2023-01-25T00:58:44.443Z,0.00
2023-01-25T00:59:44.721Z,0.00
2023-01-25T01:00:44.400Z,0.00
2023-01-25T01:01:44.404Z,0.00
2023-01-25T01:02:45.408Z,0.00
2023-01-25T01:03:44.363Z,0.00
2023-01-25T01:04:44.448Z,0.00
2023-01-25T01:05:44.412Z,0.00
2023-01-25T01:06:44.323Z,0.00
2023-01-25T01:07:44.317Z,0.00
2023-01-25T01:08:45.326Z,0.00
2023-01-25T01:09:44.310Z,0.00
2023-01-25T01:10:44.359Z,0.00
2023-01-25T01:11:44.320Z,0.00
2023-01-25T01:12:44.309Z,0.00
2023-01-25T01:13:51.898Z,0.00
2023-01-25T01:14:44.241Z,0.00
2023-01-25T01:15:44.238Z,0.00
2023-01-25T01:16:44.344Z,0.00
2023-01-25T01:17:44.222Z,0.00
2023-01-25T01:18:44.234Z,0.00
2023-01-25T01:19:44.210Z,0.00
2023-01-25T01:20:44.198Z,0.00
2023-01-25T01:21:44.194Z,0.00
2023-01-25T01:22:44.179Z,0.00
2023-01-25T01:23:44.212Z,0.00
2023-01-25T01:24:44.142Z,0.00
2023-01-25T01:25:44.138Z,0.00
2023-01-25T01:26:44.148Z,0.00
2023-01-25T01:27:44.102Z,0.00
2023-01-25T01:28:44.116Z,0.00
2023-01-25T01:29:44.077Z,0.00
2023-01-25T01:30:45.077Z,0.00
2023-01-25T01:31:44.237Z,0.00
2023-01-25T01:32:44.215Z,0.00
2023-01-25T01:33:45.089Z,0.00
2023-01-25T01:34:44.053Z,0.00
2023-01-25T01:35:44.010Z,0.00
2023-01-25T01:36:44.019Z,0.00
2023-01-25T01:37:44.002Z,0.00
2023-01-25T01:38:44.998Z,0.00
2023-01-25T01:39:44.014Z,0.00
2023-01-25T01:40:43.971Z,0.00
2023-01-25T01:41:43.948Z,0.00
2023-01-25T01:42:43.987Z,0.00
2023-01-25T01:43:43.947Z,0.00
2023-01-25T01:44:43.925Z,0.00
2023-01-25T01:45:44.051Z,0.00
2023-01-25T01:46:44.879Z,0.00
2023-01-25T01:47:43.924Z,0.00
2023-01-25T01:48:43.897Z,0.00
2023-01-25T01:49:44.867Z,0.00
2023-01-25T01:50:43.849Z,0.00
2023-01-25T01:51:43.870Z,0.00
2023-01-25T01:52:43.853Z,0.00
2023-01-25T01:53:43.815Z,0.00
2023-01-25T01:54:43.805Z,0.00
2023-01-25T01:55:43.826Z,0.00
2023-01-25T01:56:43.798Z,0.00
2023-01-25T01:57:43.791Z,0.00
2023-01-25T01:58:44.765Z,0.00
2023-01-25T01:59:44.763Z,0.00
2023-01-25T02:00:43.736Z,0.00
2023-01-25T02:01:43.877Z,0.00
2023-01-25T02:02:43.871Z,0.00
2023-01-25T02:03:43.739Z,0.00
2023-01-25T02:04:43.737Z,0.00
2023-01-25T02:05:43.740Z,0.00
2023-01-25T02:06:43.678Z,0.00
2023-01-25T02:07:43.762Z,0.00
2023-01-25T02:08:44.673Z,0.00
2023-01-25T02:09:43.663Z,0.00
2023-01-25T02:10:43.656Z,0.00
2023-01-25T02:11:43.665Z,0.00
2023-01-25T02:12:43.600Z,0.00
2023-01-25T02:13:43.608Z,0.00
2023-01-25T02:14:43.600Z,0.00
2023-01-25T02:15:43.667Z,0.00
2023-01-25T02:16:43.563Z,0.00
2023-01-25T02:17:43.579Z,0.00
2023-01-25T02:18:43.550Z,0.00
2023-01-25T02:19:44.569Z,0.00
2023-01-25T02:20:43.528Z,0.00
2023-01-25T02:21:44.550Z,0.00
2023-01-25T02:22:43.643Z,0.00
2023-01-25T02:23:43.498Z,0.00
2023-01-25T02:24:43.495Z,0.00
2023-01-25T02:25:43.478Z,0.00
2023-01-25T02:26:43.479Z,0.00
2023-01-25T02:27:44.446Z,0.00
2023-01-25T02:28:44.469Z,0.00
2023-01-25T02:29:44.418Z,0.00
2023-01-25T02:30:43.467Z,0.00
2023-01-25T02:31:43.553Z,0.00
2023-01-25T02:32:44.412Z,0.00
2023-01-25T02:33:43.414Z,0.00
2023-01-25T02:34:43.361Z,0.00
2023-01-25T02:35:43.386Z,0.00
2023-01-25T02:36:43.355Z,0.00
2023-01-25T02:37:43.364Z,0.00
2023-01-25T02:38:44.371Z,0.00
2023-01-25T02:39:43.310Z,0.00
2023-01-25T02:40:43.319Z,0.00
2023-01-25T02:41:44.306Z,0.00
2023-01-25T02:42:44.283Z,0.00
2023-01-25T02:43:43.281Z,0.00
2023-01-25T02:44:44.291Z,0.00
2023-01-25T02:45:43.293Z,0.00
2023-01-25T02:46:43.241Z,0.00
2023-01-25T02:47:43.237Z,0.00
2023-01-25T02:48:43.273Z,0.00
2023-01-25T02:49:43.263Z,0.00
2023-01-25T02:50:44.197Z,0.00
2023-01-25T02:51:43.187Z,0.00
2023-01-25T02:52:43.171Z,0.00
2023-01-25T02:53:43.197Z,0.00
2023-01-25T02:54:43.164Z,0.00
2023-01-25T02:55:43.193Z,0.00
2023-01-25T02:56:43.162Z,0.00
2023-01-25T02:57:43.125Z,0.00
2023-01-25T02:58:43.119Z,0.00
2023-01-25T02:59:43.167Z,0.00
2023-01-25T03:00:43.087Z,0.00
2023-01-25T03:01:43.178Z,0.00
2023-01-25T03:02:43.186Z,0.00
2023-01-25T03:03:43.047Z,0.00
2023-01-25T03:04:43.053Z,0.00
2023-01-25T03:05:43.050Z,0.00
2023-01-25T03:06:43.049Z,0.00
2023-01-25T03:07:43.050Z,0.00
2023-01-25T03:08:43.056Z,0.00
2023-01-25T03:09:43.042Z,0.00
2023-01-25T03:10:42.971Z,0.00
2023-01-25T03:11:42.961Z,0.00
2023-01-25T03:12:42.976Z,0.00
2023-01-25T03:13:42.990Z,0.00
2023-01-25T03:14:42.970Z,0.00
2023-01-25T03:15:42.926Z,0.00
2023-01-25T03:16:42.923Z,0.00
2023-01-25T03:17:42.939Z,0.00
2023-01-25T03:18:42.899Z,0.00
2023-01-25T03:19:42.901Z,0.00
2023-01-25T03:20:42.854Z,0.00
2023-01-25T03:21:42.874Z,0.00
2023-01-25T03:22:42.847Z,0.00
2023-01-25T03:23:42.862Z,0.00
2023-01-25T03:24:42.839Z,0.00
2023-01-25T03:25:42.848Z,0.00
2023-01-25T03:26:42.850Z,0.00
2023-01-25T03:27:42.796Z,0.00
2023-01-25T03:28:42.797Z,0.00
2023-01-25T03:29:42.769Z,0.00
2023-01-25T03:30:42.779Z,0.00
2023-01-25T03:31:42.888Z,0.00
2023-01-25T03:32:42.780Z,0.00
2023-01-25T03:33:42.740Z,0.00
2023-01-25T03:34:42.713Z,0.00
2023-01-25T03:35:42.705Z,0.00
2023-01-25T03:36:42.707Z,0.00
2023-01-25T03:37:42.717Z,0.00
2023-01-25T03:38:42.663Z,0.00
2023-01-25T03:39:42.690Z,0.00
2023-01-25T03:40:42.651Z,0.00
2023-01-25T03:41:42.640Z,0.00
2023-01-25T03:42:42.655Z,0.00
2023-01-25T03:43:42.651Z,0.00
2023-01-25T03:44:42.611Z,0.00
2023-01-25T03:45:42.602Z,0.00
2023-01-25T03:46:42.684Z,0.00
2023-01-25T03:47:42.568Z,0.00
2023-01-25T03:48:42.601Z,0.00
2023-01-25T03:49:42.549Z,0.00
2023-01-25T03:50:42.543Z,0.00
2023-01-25T03:51:42.591Z,0.00
2023-01-25T03:52:42.522Z,0.00
2023-01-25T03:53:43.536Z,0.00
2023-01-25T03:54:43.497Z,0.00
2023-01-25T03:55:42.518Z,0.00
2023-01-25T03:56:42.530Z,0.00
2023-01-25T03:57:43.463Z,0.00
2023-01-25T03:58:42.465Z,0.00
2023-01-25T03:59:42.447Z,0.00
2023-01-25T04:00:42.465Z,0.00
2023-01-25T04:01:42.465Z,0.00
2023-01-25T04:02:42.527Z,0.00
2023-01-25T04:03:42.417Z,0.00
2023-01-25T04:04:42.423Z,0.00
2023-01-25T04:05:42.385Z,0.00
2023-01-25T04:06:43.393Z,0.00
2023-01-25T04:07:42.348Z,0.00
2023-01-25T04:08:42.368Z,0.00
2023-01-25T04:09:42.361Z,0.00
2023-01-25T04:10:42.320Z,0.00
2023-01-25T04:11:42.349Z,0.00
2023-01-25T04:12:42.308Z,0.00
2023-01-25T04:13:42.338Z,0.00
2023-01-25T04:14:44.566Z,0.00
2023-01-25T04:15:43.275Z,0.00
2023-01-25T04:16:42.333Z,0.00
2023-01-25T04:17:42.266Z,0.00
2023-01-25T04:18:42.262Z,0.00
2023-01-25T04:19:42.264Z,0.00
2023-01-25T04:20:42.426Z,0.00
2023-01-25T04:21:43.231Z,0.00
2023-01-25T04:22:42.202Z,0.00
2023-01-25T04:23:42.189Z,0.00
2023-01-25T04:24:42.192Z,0.00
2023-01-25T04:25:42.181Z,0.00
2023-01-25T04:26:42.166Z,0.00
2023-01-25T04:27:42.178Z,0.00
2023-01-25T04:28:42.151Z,0.00
2023-01-25T04:29:43.171Z,0.00
2023-01-25T04:30:43.114Z,0.00
2023-01-25T04:31:42.236Z,0.00
2023-01-25T04:32:42.357Z,0.00
2023-01-25T04:33:42.116Z,0.00
2023-01-25T04:34:43.082Z,0.00
2023-01-25T04:35:42.063Z,0.00
2023-01-25T04:36:43.045Z,0.00
2023-01-25T04:37:42.083Z,0.00
2023-01-25T04:38:42.028Z,0.00
2023-01-25T04:39:42.006Z,0.00
2023-01-25T04:40:42.003Z,0.00
2023-01-25T04:41:44.578Z,0.00
2023-01-25T04:42:42.012Z,0.00
2023-01-25T04:43:41.982Z,0.00
2023-01-25T04:44:42.024Z,0.00
2023-01-25T04:45:42.023Z,0.00
2023-01-25T04:46:41.941Z,0.00
2023-01-25T04:47:41.944Z,0.00
2023-01-25T04:48:41.960Z,0.00
2023-01-25T04:49:41.926Z,0.00
2023-01-25T04:50:41.910Z,0.00
2023-01-25T04:51:42.897Z,0.00
2023-01-25T04:52:42.898Z,0.00
2023-01-25T04:53:41.846Z,0.00
2023-01-25T04:54:41.850Z,0.00
2023-01-25T04:55:41.830Z,0.00
2023-01-25T04:56:42.884Z,0.00
2023-01-25T04:57:42.849Z,0.00
2023-01-25T04:58:41.814Z,0.00
2023-01-25T04:59:41.839Z,0.00
2023-01-25T05:00:41.873Z,0.00
2023-01-25T05:01:42.768Z,0.00
2023-01-25T05:02:41.851Z,0.00
2023-01-25T05:03:42.771Z,0.00
2023-01-25T05:04:41.779Z,0.00
2023-01-25T05:05:41.752Z,0.00
2023-01-25T05:06:41.760Z,0.00
2023-01-25T05:07:41.713Z,0.00
2023-01-25T05:08:41.697Z,0.00
2023-01-25T05:09:41.695Z,0.00
2023-01-25T05:10:41.722Z,0.00
2023-01-25T05:11:41.663Z,0.00
2023-01-25T05:12:41.656Z,0.00
2023-01-25T05:13:41.649Z,0.00
2023-01-25T05:14:42.639Z,0.00
2023-01-25T05:15:41.640Z,0.00
2023-01-25T05:16:41.678Z,0.00
2023-01-25T05:17:42.603Z,0.00
2023-01-25T05:18:48.501Z,0.00
2023-01-25T05:19:42.579Z,0.00
2023-01-25T05:20:41.587Z,0.00
2023-01-25T05:21:44.860Z,0.00
2023-01-25T05:22:41.555Z,0.00
2023-01-25T05:23:41.560Z,0.00
2023-01-25T05:24:41.558Z,0.00
2023-01-25T05:25:42.524Z,0.00
2023-01-25T05:26:41.500Z,0.00
2023-01-25T05:27:41.505Z,0.00
2023-01-25T05:28:41.514Z,0.00
2023-01-25T05:29:41.470Z,0.00
2023-01-25T05:30:41.500Z,0.00
2023-01-25T05:31:42.520Z,0.00
2023-01-25T05:32:41.433Z,0.00
2023-01-25T05:33:41.434Z,0.00
2023-01-25T05:34:42.455Z,0.00
2023-01-25T05:35:41.396Z,0.00
2023-01-25T05:36:42.397Z,0.00
2023-01-25T05:37:41.392Z,0.00
2023-01-25T05:38:41.405Z,0.00
2023-01-25T05:39:41.391Z,0.00
2023-01-25T05:40:41.351Z,0.00
2023-01-25T05:41:41.337Z,0.00
2023-01-25T05:42:42.332Z,0.00
2023-01-25T05:43:41.319Z,0.00
2023-01-25T05:44:41.301Z,0.00
2023-01-25T05:45:41.388Z,0.00
2023-01-25T05:46:41.274Z,0.00
2023-01-25T05:47:41.298Z,0.00
2023-01-25T05:48:41.251Z,0.00
2023-01-25T05:49:41.257Z,0.00
2023-01-25T05:50:41.297Z,0.00
2023-01-25T05:51:41.241Z,0.00
2023-01-25T05:52:41.223Z,0.00
2023-01-25T05:53:41.216Z,0.00
2023-01-25T05:54:42.203Z,0.00
2023-01-25T05:55:41.214Z,0.00
2023-01-25T05:56:41.186Z,0.00
2023-01-25T05:57:42.168Z,0.00
2023-01-25T05:58:41.155Z,0.00
2023-01-25T05:59:41.166Z,0.00
2023-01-25T06:00:41.128Z,0.00
2023-01-25T06:01:42.140Z,0.00
2023-01-25T06:02:41.338Z,0.00
2023-01-25T06:03:41.228Z,0.00
2023-01-25T06:04:41.118Z,0.00
2023-01-25T06:05:41.074Z,0.00
2023-01-25T06:06:41.074Z,0.00
2023-01-25T06:07:41.078Z,0.00
2023-01-25T06:08:42.046Z,0.00
2023-01-25T06:09:42.038Z,0.00
2023-01-25T06:10:41.012Z,0.00
2023-01-25T06:11:40.995Z,0.00
2023-01-25T06:12:41.033Z,0.00
2023-01-25T06:13:40.994Z,0.00
2023-01-25T06:14:40.994Z,0.00
2023-01-25T06:15:41.101Z,0.00
2023-01-25T06:16:40.958Z,0.00
2023-01-25T06:17:40.968Z,0.00
2023-01-25T06:18:40.954Z,0.00
2023-01-25T06:19:40.967Z,0.00
2023-01-25T06:20:40.937Z,0.00
2023-01-25T06:21:40.889Z,0.00
2023-01-25T06:22:40.904Z,0.00
2023-01-25T06:23:41.158Z,0.00
2023-01-25T06:24:40.893Z,0.00
2023-01-25T06:25:40.859Z,0.00
2023-01-25T06:26:40.850Z,0.00
2023-01-25T06:27:40.874Z,0.00
2023-01-25T06:28:40.836Z,0.00
2023-01-25T06:29:41.811Z,0.00
2023-01-25T06:30:41.830Z,0.00
2023-01-25T06:31:41.913Z,0.00
2023-01-25T06:32:40.801Z,0.00
2023-01-25T06:33:40.765Z,0.00
2023-01-25T06:34:41.782Z,0.00
2023-01-25T06:35:40.772Z,0.00
2023-01-25T06:36:40.761Z,0.00
2023-01-25T06:37:41.735Z,0.00
2023-01-25T06:38:40.746Z,0.00
2023-01-25T06:39:40.754Z,0.00
2023-01-25T06:40:40.686Z,0.00
2023-01-25T06:41:40.724Z,0.00
2023-01-25T06:42:40.682Z,0.00
2023-01-25T06:43:40.682Z,0.00
2023-01-25T06:44:40.638Z,0.00
2023-01-25T06:45:41.626Z,0.00
2023-01-25T06:46:41.734Z,0.00
2023-01-25T06:47:40.688Z,0.00
2023-01-25T06:48:41.627Z,0.00
2023-01-25T06:49:40.606Z,0.00
2023-01-25T06:50:40.573Z,0.00
2023-01-25T06:51:41.588Z,0.00
2023-01-25T06:52:40.559Z,0.00
2023-01-25T06:53:40.597Z,4.00
2023-01-25T06:54:40.567Z,4.00
2023-01-25T06:55:40.547Z,4.00
2023-01-25T06:56:41.507Z,4.00
2023-01-25T06:57:40.522Z,4.00
2023-01-25T06:58:40.522Z,0.00
2023-01-25T06:59:40.506Z,0.00
2023-01-25T07:00:40.521Z,0.00
2023-01-25T07:01:40.552Z,0.00
2023-01-25T07:02:40.545Z,0.00
2023-01-25T07:03:41.453Z,0.00
2023-01-25T07:04:40.447Z,4.00
2023-01-25T07:05:40.474Z,4.00
2023-01-25T07:06:40.447Z,4.00
2023-01-25T07:07:40.435Z,4.00
2023-01-25T07:08:40.443Z,4.00
2023-01-25T07:09:40.412Z,8.00
2023-01-25T07:10:40.396Z,4.00
2023-01-25T07:11:40.355Z,4.00
2023-01-25T07:12:40.391Z,4.00
2023-01-25T07:13:40.379Z,8.00
2023-01-25T07:14:40.390Z,4.00
2023-01-25T07:15:40.374Z,4.00
2023-01-25T07:16:40.315Z,8.00
2023-01-25T07:17:40.305Z,4.00
2023-01-25T07:18:40.312Z,8.00
2023-01-25T07:19:40.290Z,8.00
2023-01-25T07:20:40.287Z,8.00
2023-01-25T07:21:40.267Z,8.00
2023-01-25T07:22:40.257Z,8.00
2023-01-25T07:23:41.281Z,8.00
2023-01-25T07:24:40.224Z,12.00
2023-01-25T07:25:40.227Z,8.00
2023-01-25T07:26:40.194Z,12.00
2023-01-25T07:27:40.185Z,12.00
2023-01-25T07:28:41.174Z,12.00
2023-01-25T07:29:40.190Z,12.00
2023-01-25T07:30:40.175Z,12.00
2023-01-25T07:31:40.248Z,12.00
2023-01-25T07:32:41.150Z,16.00
2023-01-25T07:33:40.125Z,16.00
2023-01-25T07:34:41.139Z,16.00
2023-01-25T07:35:41.113Z,16.00
2023-01-25T07:36:40.082Z,16.00
2023-01-25T07:37:40.074Z,16.00
2023-01-25T07:38:40.075Z,16.00
2023-01-25T07:39:40.059Z,16.00
2023-01-25T07:40:40.065Z,16.00
2023-01-25T07:41:41.079Z,20.00
2023-01-25T07:42:41.021Z,16.00
2023-01-25T07:44:29.360Z,20.00
2023-01-25T07:45:29.340Z,20.00
2023-01-25T07:46:29.322Z,20.00
2023-01-25T07:47:30.290Z,20.00
2023-01-25T07:48:29.285Z,16.00
2023-01-25T07:49:29.291Z,16.00
2023-01-25T07:50:29.311Z,20.00
2023-01-25T07:51:30.263Z,20.00
2023-01-25T07:52:29.255Z,20.00
2023-01-25T07:53:29.264Z,20.00
2023-01-25T07:54:30.221Z,20.00
2023-01-25T07:55:29.246Z,20.00
2023-01-25T07:56:29.289Z,24.00
2023-01-25T07:57:29.226Z,20.00
2023-01-25T07:58:29.187Z,24.00
2023-01-25T07:59:29.178Z,24.00
2023-01-25T08:00:30.195Z,24.00
2023-01-25T08:01:29.141Z,28.00
2023-01-25T08:02:29.151Z,24.00
2023-01-25T08:03:29.161Z,28.00
2023-01-25T08:04:29.125Z,28.00
2023-01-25T08:05:29.128Z,32.00
2023-01-25T08:06:30.099Z,36.00
2023-01-25T08:07:29.090Z,36.00
2023-01-25T08:08:29.503Z,36.00
2023-01-25T08:09:29.094Z,36.00
2023-01-25T08:10:29.058Z,36.00
2023-01-25T08:11:30.077Z,40.00
2023-01-25T08:12:29.055Z,40.00
2023-01-25T08:13:29.035Z,40.00
2023-01-25T08:14:29.046Z,36.00
2023-01-25T08:15:28.991Z,40.00
2023-01-25T08:16:28.997Z,36.00
2023-01-25T08:17:28.998Z,36.00
2023-01-25T08:18:28.968Z,36.00
2023-01-25T08:19:28.959Z,36.00
2023-01-25T08:20:28.966Z,40.00
2023-01-25T08:21:28.958Z,40.00
2023-01-25T08:22:28.973Z,40.00
2023-01-25T08:23:28.909Z,40.00
2023-01-25T08:24:29.037Z,44.00
2023-01-25T08:25:29.874Z,40.00
2023-01-25T08:26:28.921Z,44.00
2023-01-25T08:27:28.875Z,44.00
2023-01-25T08:28:28.874Z,40.00
2023-01-25T08:29:28.900Z,44.00
2023-01-25T08:30:28.820Z,40.00
2023-01-25T08:31:29.042Z,40.00
2023-01-25T08:32:28.836Z,44.00
2023-01-25T08:33:28.811Z,40.00
2023-01-25T08:34:28.800Z,44.00
2023-01-25T08:35:28.811Z,44.00
2023-01-25T08:36:28.795Z,40.00
2023-01-25T08:37:29.795Z,44.00
2023-01-25T08:38:28.740Z,48.00
2023-01-25T08:39:28.751Z,48.00
2023-01-25T08:40:28.770Z,44.00
2023-01-25T08:41:28.727Z,44.00
2023-01-25T08:42:28.705Z,48.00
2023-01-25T08:43:29.707Z,44.00
2023-01-25T08:44:28.713Z,48.00
2023-01-25T08:45:28.703Z,52.00
2023-01-25T08:46:30.401Z,56.00
2023-01-25T08:47:28.639Z,56.00
2023-01-25T08:48:28.640Z,60.00
2023-01-25T08:49:28.659Z,60.00
2023-01-25T08:50:29.643Z,60.00
2023-01-25T08:51:29.616Z,64.00
2023-01-25T08:52:28.586Z,64.00
2023-01-25T08:53:28.595Z,64.00
2023-01-25T08:54:28.557Z,64.00
2023-01-25T08:55:29.600Z,68.00
2023-01-25T08:56:28.553Z,68.00
2023-01-25T08:57:29.530Z,72.00
2023-01-25T08:58:29.533Z,72.00
2023-01-25T08:59:28.540Z,72.00
2023-01-25T09:00:28.520Z,68.00
2023-01-25T09:01:28.484Z,68.00
2023-01-25T09:02:28.517Z,68.00
2023-01-25T09:03:29.500Z,68.00
2023-01-25T09:04:28.503Z,68.00
2023-01-25T09:05:28.454Z,72.00
2023-01-25T09:06:28.447Z,72.00
2023-01-25T09:07:28.432Z,68.00
2023-01-25T09:08:28.442Z,72.00
2023-01-25T09:09:28.419Z,72.00
2023-01-25T09:10:28.395Z,68.00
2023-01-25T09:11:28.382Z,68.00
2023-01-25T09:12:28.392Z,72.00
2023-01-25T09:13:28.353Z,64.00
2023-01-25T09:14:29.388Z,64.00
2023-01-25T09:15:28.369Z,64.00
2023-01-25T09:16:28.692Z,72.00
2023-01-25T09:17:28.381Z,72.00
2023-01-25T09:18:28.314Z,72.00
2023-01-25T09:19:28.294Z,68.00
2023-01-25T09:20:31.758Z,68.00
2023-01-25T09:21:29.326Z,68.00
2023-01-25T09:22:29.268Z,72.00
2023-01-25T09:23:28.246Z,72.00
2023-01-25T09:24:28.289Z,72.00
2023-01-25T09:25:28.257Z,72.00
2023-01-25T09:26:28.231Z,72.00
2023-01-25T09:27:28.203Z,72.00
2023-01-25T09:28:28.207Z,76.00
2023-01-25T09:29:28.211Z,76.00
2023-01-25T09:30:40.836Z,76.00
2023-01-25T09:31:29.538Z,80.00
2023-01-25T09:32:28.256Z,76.00
2023-01-25T09:33:28.137Z,76.00
2023-01-25T09:34:28.125Z,80.00
2023-01-25T09:35:28.150Z,80.00
2023-01-25T09:36:28.104Z,80.00
2023-01-25T09:37:28.098Z,80.00
2023-01-25T09:38:28.116Z,80.00
2023-01-25T09:39:28.090Z,76.00
2023-01-25T09:40:28.065Z,80.00
2023-01-25T09:41:28.129Z,84.00
2023-01-25T09:42:29.069Z,88.00
2023-01-25T09:43:28.046Z,92.00
2023-01-25T09:44:28.039Z,96.00
2023-01-25T09:45:28.008Z,96.00
2023-01-25T09:46:28.049Z,92.00
2023-01-25T09:47:28.480Z,96.00
2023-01-25T09:48:27.981Z,96.00
2023-01-25T09:49:28.964Z,96.00
2023-01-25T09:50:27.993Z,96.00
2023-01-25T09:51:27.954Z,96.00
2023-01-25T09:52:27.955Z,96.00
2023-01-25T09:53:28.936Z,88.00
2023-01-25T09:54:28.481Z,80.00
2023-01-25T09:55:28.911Z,80.00
2023-01-25T09:56:27.937Z,68.00
2023-01-25T09:57:27.892Z,72.00
2023-01-25T09:58:27.872Z,80.00
2023-01-25T09:59:27.884Z,84.00
2023-01-25T10:00:27.848Z,92.00
2023-01-25T10:01:37.954Z,100.00
2023-01-25T10:02:28.962Z,104.00
2023-01-25T10:03:28.858Z,108.00
2023-01-25T10:04:27.836Z,112.00
2023-01-25T10:05:28.807Z,116.00
2023-01-25T10:06:29.567Z,112.00
2023-01-25T10:07:27.811Z,112.00
2023-01-25T10:08:28.774Z,108.00
2023-01-25T10:09:27.800Z,104.00
2023-01-25T10:10:27.755Z,104.00
2023-01-25T10:11:27.748Z,104.00
2023-01-25T10:12:27.729Z,104.00
2023-01-25T10:13:27.724Z,104.00
2023-01-25T10:14:27.751Z,104.00
2023-01-25T10:15:27.703Z,104.00
2023-01-25T10:16:28.600Z,108.00
2023-01-25T10:17:27.677Z,108.00
2023-01-25T10:18:28.677Z,108.00
2023-01-25T10:19:28.670Z,108.00
2023-01-25T10:20:27.635Z,108.00
2023-01-25T10:21:27.641Z,112.00
2023-01-25T10:22:28.936Z,112.00
2023-01-25T10:23:27.602Z,116.00
2023-01-25T10:24:27.615Z,120.00
2023-01-25T10:25:27.597Z,120.00
2023-01-25T10:26:28.555Z,120.00
2023-01-25T10:27:27.590Z,120.00
2023-01-25T10:28:29.863Z,120.00
2023-01-25T10:29:27.620Z,120.00
2023-01-25T10:30:27.542Z,124.00
2023-01-25T10:31:27.643Z,120.00
2023-01-25T10:32:28.905Z,116.00
2023-01-25T10:33:27.512Z,120.00
2023-01-25T10:34:27.490Z,120.00
2023-01-25T10:35:35.361Z,116.00
2023-01-25T10:36:28.463Z,116.00
2023-01-25T10:37:27.484Z,120.00
2023-01-25T10:38:27.481Z,124.00
2023-01-25T10:39:28.423Z,120.00
2023-01-25T10:40:27.443Z,108.00
2023-01-25T10:41:27.406Z,108.00
2023-01-25T10:42:27.416Z,112.00
2023-01-25T10:43:27.397Z,116.00
2023-01-25T10:44:27.395Z,120.00
2023-01-25T10:45:28.384Z,116.00
2023-01-25T10:46:27.421Z,120.00
2023-01-25T10:47:27.357Z,116.00
2023-01-25T10:48:29.096Z,124.00
2023-01-25T10:49:28.303Z,120.00
2023-01-25T10:50:27.312Z,124.00
2023-01-25T10:51:27.321Z,120.00
2023-01-25T10:52:27.305Z,124.00
2023-01-25T10:53:27.269Z,128.00
2023-01-25T10:54:30.005Z,128.00
2023-01-25T10:55:27.250Z,120.00
2023-01-25T10:56:27.257Z,124.00
2023-01-25T10:57:27.297Z,120.00
2023-01-25T10:58:27.227Z,116.00
2023-01-25T10:59:27.233Z,124.00
2023-01-25T11:00:29.987Z,124.00
2023-01-25T11:01:27.212Z,120.00
2023-01-25T11:02:27.196Z,124.00
2023-01-25T11:03:27.201Z,124.00
2023-01-25T11:04:27.140Z,124.00
2023-01-25T11:05:28.162Z,128.00
2023-01-25T11:06:29.083Z,128.00
2023-01-25T11:07:27.132Z,128.00
2023-01-25T11:08:27.127Z,128.00
2023-01-25T11:09:27.115Z,128.00
2023-01-25T11:10:27.109Z,128.00
2023-01-25T11:11:27.101Z,132.00
2023-01-25T11:12:27.057Z,132.00
2023-01-25T11:13:28.049Z,132.00
2023-01-25T11:14:27.052Z,132.00
2023-01-25T11:15:27.065Z,128.00
2023-01-25T11:16:27.051Z,124.00
2023-01-25T11:17:27.024Z,120.00
2023-01-25T11:18:27.000Z,120.00
2023-01-25T11:19:27.038Z,124.00
2023-01-25T11:20:26.989Z,124.00
2023-01-25T11:21:26.989Z,124.00
2023-01-25T11:22:26.959Z,128.00
2023-01-25T11:23:27.950Z,128.00
2023-01-25T11:24:27.070Z,124.00
2023-01-25T11:25:27.939Z,124.00
2023-01-25T11:26:26.917Z,116.00
2023-01-25T11:27:26.924Z,116.00
2023-01-25T11:28:26.931Z,120.00
2023-01-25T11:29:26.899Z,128.00
2023-01-25T11:30:26.865Z,132.00
2023-01-25T11:31:26.965Z,136.00
2023-01-25T11:32:26.854Z,140.00
2023-01-25T11:33:26.841Z,148.00
2023-01-25T11:34:26.837Z,156.00
2023-01-25T11:35:26.841Z,156.00
2023-01-25T11:36:26.793Z,160.00
2023-01-25T11:37:26.793Z,160.00
2023-01-25T11:38:26.777Z,156.00
2023-01-25T11:39:27.916Z,152.00
2023-01-25T11:40:26.778Z,144.00
2023-01-25T11:41:26.782Z,136.00
2023-01-25T11:42:26.778Z,136.00
2023-01-25T11:43:26.743Z,136.00
2023-01-25T11:44:26.722Z,136.00
2023-01-25T11:45:26.708Z,132.00
2023-01-25T11:46:26.721Z,132.00
2023-01-25T11:47:26.732Z,136.00
2023-01-25T11:48:26.678Z,140.00
2023-01-25T11:49:26.661Z,136.00
2023-01-25T11:50:26.687Z,136.00
2023-01-25T11:51:27.648Z,140.00
2023-01-25T11:52:26.642Z,132.00
2023-01-25T11:53:26.644Z,128.00
2023-01-25T11:54:27.634Z,124.00
2023-01-25T11:55:26.614Z,124.00
2023-01-25T11:56:26.587Z,116.00
2023-01-25T11:57:26.576Z,100.00
2023-01-25T11:58:26.596Z,100.00
2023-01-25T11:59:27.558Z,100.00
2023-01-25T12:00:26.532Z,104.00
2023-01-25T12:01:26.533Z,108.00
2023-01-25T12:02:26.555Z,120.00
2023-01-25T12:03:26.507Z,132.00
2023-01-25T12:04:26.533Z,136.00
2023-01-25T12:05:26.478Z,140.00
2023-01-25T12:06:27.490Z,136.00
2023-01-25T12:07:26.490Z,128.00
2023-01-25T12:08:26.501Z,124.00
2023-01-25T12:09:26.504Z,116.00
2023-01-25T12:10:26.443Z,120.00
2023-01-25T12:11:26.494Z,124.00
2023-01-25T12:12:26.429Z,120.00
2023-01-25T12:13:26.433Z,120.00
2023-01-25T12:14:26.390Z,116.00
2023-01-25T12:15:26.388Z,116.00
2023-01-25T12:16:27.383Z,120.00
2023-01-25T12:17:26.360Z,124.00
2023-01-25T12:18:28.318Z,120.00
2023-01-25T12:19:26.409Z,124.00
2023-01-25T12:20:26.320Z,124.00
2023-01-25T12:21:31.586Z,124.00
2023-01-25T12:22:27.292Z,120.00
2023-01-25T12:23:26.332Z,116.00
2023-01-25T12:24:26.271Z,116.00
2023-01-25T12:25:26.262Z,108.00
2023-01-25T12:26:27.269Z,108.00
2023-01-25T12:27:27.263Z,108.00
2023-01-25T12:28:26.266Z,104.00
2023-01-25T12:29:26.242Z,96.00
2023-01-25T12:30:26.224Z,96.00
2023-01-25T12:31:26.280Z,92.00
2023-01-25T12:32:26.191Z,88.00
2023-01-25T12:33:26.299Z,96.00
2023-01-25T12:34:26.176Z,100.00
2023-01-25T12:35:26.149Z,108.00
2023-01-25T12:36:27.172Z,116.00
2023-01-25T12:37:26.140Z,112.00
2023-01-25T12:38:26.128Z,112.00
2023-01-25T12:39:27.150Z,112.00
2023-01-25T12:40:26.101Z,120.00
2023-01-25T12:41:26.100Z,128.00
2023-01-25T12:42:26.104Z,128.00
2023-01-25T12:43:27.120Z,124.00
2023-01-25T12:44:26.076Z,120.00
2023-01-25T12:45:26.038Z,116.00
2023-01-25T12:46:26.108Z,120.00
2023-01-25T12:47:26.018Z,120.00
2023-01-25T12:48:26.018Z,116.00
2023-01-25T12:49:26.047Z,116.00
2023-01-25T12:50:26.032Z,112.00
2023-01-25T12:51:25.984Z,112.00
2023-01-25T12:52:26.011Z,108.00
2023-01-25T12:53:25.981Z,108.00
2023-01-25T12:54:25.984Z,108.00
2023-01-25T12:55:25.951Z,104.00
2023-01-25T12:56:26.931Z,104.00
2023-01-25T12:57:25.972Z,100.00
2023-01-25T12:58:37.079Z,100.00
2023-01-25T12:59:27.025Z,100.00
2023-01-25T13:00:25.885Z,100.00
2023-01-25T13:01:25.942Z,92.00
2023-01-25T13:02:26.855Z,96.00